Time;durP1;ratioP1;P1;durP2;ratioP2;P2;SDS_P1;SDS_P2;PMS_P1;PMS_P2;Temp;Humidity;BMP_temperature;BMP_pressure;BME280_temperature;BME280_humidity;BME280_pressure;Samples;Min_cycle;Max_cycle;Signal;HPM_P1;HPM_P2
2021/11/11 00:00:23;;;;;;;45.83;19.77;;;1.80;99.90;;;;;;5071489;28;20032;-59
2021/11/11 00:02:49;;;;;;;43.22;19.77;;;1.80;99.90;;;;;;5070489;28;20040;-62
2021/11/11 00:05:14;;;;;;;43.22;19.73;;;1.90;99.90;;;;;;5069948;28;20036;-61
2021/11/11 00:07:40;;;;;;;41.25;19.40;;;1.80;99.90;;;;;;5053777;28;20116;-60
2021/11/11 00:10:10;;;;;;;41.33;18.83;;;1.90;99.90;;;;;;5070638;28;20025;-63
2021/11/11 00:12:36;;;;;;;43.08;18.67;;;1.90;99.90;;;;;;5070370;28;20067;-59
2021/11/11 00:15:05;;;;;;;39.10;18.30;;;1.90;99.90;;;;;;5069904;28;20052;-62
2021/11/11 00:17:31;;;;;;;34.45;18.30;;;1.90;99.90;;;;;;5070345;28;20039;-63
2021/11/11 00:19:57;;;;;;;35.25;19.40;;;1.70;99.90;;;;;;5069855;28;20498;-60
2021/11/11 00:22:23;;;;;;;44.72;18.40;;;1.70;99.90;;;;;;5070735;28;20029;-60
2021/11/11 00:24:48;;;;;;;36.03;18.00;;;1.50;99.90;;;;;;5051883;28;20107;-62
2021/11/11 00:27:14;;;;;;;50.78;18.33;;;1.50;99.90;;;;;;5070570;28;20603;-60
2021/11/11 00:29:40;;;;;;;39.22;18.63;;;1.40;99.90;;;;;;5070299;28;20371;-60
2021/11/11 00:32:06;;;;;;;37.13;19.83;;;1.30;99.90;;;;;;5070481;28;20012;-60
2021/11/11 00:34:32;;;;;;;38.55;18.20;;;1.30;99.90;;;;;;5069743;28;20028;-61
2021/11/11 00:36:59;;;;;;;42.83;18.75;;;1.20;99.90;;;;;;5072341;28;20032;-63
2021/11/11 00:39:24;;;;;;;45.67;19.63;;;1.10;99.90;;;;;;5073640;28;20144;-62
2021/11/11 00:41:51;;;;;;;42.78;20.00;;;1.10;99.90;;;;;;5074137;28;20430;-62
2021/11/11 00:44:17;;;;;;;49.53;21.40;;;1.00;99.90;;;;;;5069516;28;20028;-61
2021/11/11 00:46:42;;;;;;;43.58;21.33;;;0.90;99.90;;;;;;5074160;28;20024;-61
2021/11/11 00:49:08;;;;;;;48.13;20.30;;;0.80;99.90;;;;;;5073018;28;20029;-63
2021/11/11 00:51:35;;;;;;;45.58;20.92;;;0.90;99.90;;;;;;5073891;28;20024;-61
2021/11/11 00:54:01;;;;;;;43.78;19.60;;;1.00;99.90;;;;;;5073089;28;20036;-61
2021/11/11 00:56:27;;;;;;;42.25;18.05;;;1.10;99.90;;;;;;5073373;28;20031;-64
2021/11/11 00:58:53;;;;;;;43.00;18.85;;;1.20;99.90;;;;;;5073601;28;20535;-61
2021/11/11 01:01:18;;;;;;;40.85;19.45;;;1.20;99.90;;;;;;5073064;28;20405;-63
2021/11/11 01:03:44;;;;;;;41.10;19.88;;;1.20;99.90;;;;;;5072971;28;20100;-64
2021/11/11 01:06:11;;;;;;;38.58;19.60;;;1.20;99.90;;;;;;5074510;28;20461;-61
2021/11/11 01:08:37;;;;;;;47.35;20.10;;;1.20;99.90;;;;;;5073313;28;20100;-63
2021/11/11 01:11:05;;;;;;;37.83;18.42;;;1.30;99.90;;;;;;5080004;28;20020;-63
2021/11/11 01:13:31;;;;;;;36.33;18.50;;;1.10;99.90;;;;;;5070275;28;20033;-64
2021/11/11 01:15:58;;;;;;;41.42;18.15;;;0.90;99.90;;;;;;5072930;28;20017;-64
2021/11/11 01:18:23;;;;;;;45.35;17.52;;;0.80;99.90;;;;;;5073074;28;20032;-62
2021/11/11 01:20:49;;;;;;;36.95;18.50;;;0.80;99.90;;;;;;5073574;28;20036;-64
2021/11/11 01:23:15;;;;;;;45.05;18.70;;;0.80;99.90;;;;;;5072818;28;20041;-65
2021/11/11 01:25:41;;;;;;;36.85;18.88;;;0.80;99.90;;;;;;5072089;28;20453;-62
2021/11/11 01:28:08;;;;;;;45.78;19.70;;;0.80;99.90;;;;;;5072939;28;20035;-62
2021/11/11 01:30:36;;;;;;;39.08;18.92;;;0.90;99.90;;;;;;5073420;28;20048;-64
2021/11/11 01:33:02;;;;;;;42.15;18.13;;;1.00;99.90;;;;;;5072444;28;20031;-63
2021/11/11 01:35:27;;;;;;;47.25;18.40;;;1.10;99.90;;;;;;5072787;28;20021;-62
2021/11/11 01:37:53;;;;;;;40.30;18.17;;;1.30;99.90;;;;;;5071993;28;20033;-62
2021/11/11 01:40:19;;;;;;;43.85;19.55;;;1.40;99.90;;;;;;5072324;28;20497;-59
2021/11/11 01:42:48;;;;;;;36.83;18.73;;;1.60;99.90;;;;;;5071669;28;20064;-60
2021/11/11 01:45:15;;;;;;;31.20;17.40;;;1.70;99.90;;;;;;5072250;28;20040;-62
2021/11/11 01:47:41;;;;;;;40.70;18.58;;;1.80;99.90;;;;;;5071735;28;20071;-62
2021/11/11 01:50:10;;;;;;;37.83;18.88;;;1.80;99.90;;;;;;5053359;28;20048;-59
2021/11/11 01:52:36;;;;;;;39.83;20.08;;;1.80;99.90;;;;;;5054334;28;20028;-58
2021/11/11 01:55:03;;;;;;;42.20;18.95;;;1.80;99.90;;;;;;5054021;28;20025;-61
2021/11/11 01:57:28;;;;;;;35.92;18.45;;;1.70;99.90;;;;;;5072267;28;20166;-64
2021/11/11 01:59:54;;;;;;;42.03;19.45;;;1.60;99.90;;;;;;5069078;28;20107;-62
2021/11/11 02:02:28;;;;;;;39.60;19.42;;;1.60;99.90;;;;;;5074119;28;20024;-61
2021/11/11 02:04:54;;;;;;;44.95;19.73;;;1.70;99.90;;;;;;5071772;28;20025;-63
2021/11/11 02:07:20;;;;;;;43.70;18.73;;;1.60;99.90;;;;;;5069826;28;20527;-63
2021/11/11 02:09:47;;;;;;;37.67;18.67;;;1.60;99.90;;;;;;5072099;28;20401;-62
2021/11/11 02:12:12;;;;;;;42.30;19.60;;;1.50;99.90;;;;;;5072577;28;20405;-61
2021/11/11 02:14:38;;;;;;;49.90;20.05;;;1.50;99.90;;;;;;5070857;28;20270;-62
2021/11/11 02:17:04;;;;;;;45.03;22.23;;;1.60;99.90;;;;;;5071484;28;20032;-60
2021/11/11 02:19:30;;;;;;;43.08;20.45;;;1.60;99.90;;;;;;5071107;28;20033;-62
2021/11/11 02:21:55;;;;;;;49.10;20.52;;;1.60;99.90;;;;;;5071041;28;20078;-60
2021/11/11 02:24:21;;;;;;;45.08;20.30;;;1.60;99.90;;;;;;5050538;28;20042;-63
2021/11/11 02:26:49;;;;;;;43.22;19.80;;;1.60;99.90;;;;;;5072686;28;20029;-61
2021/11/11 02:29:15;;;;;;;48.97;19.98;;;1.60;99.90;;;;;;5071945;28;20028;-61
2021/11/11 02:31:40;;;;;;;42.22;20.52;;;1.60;99.90;;;;;;5071471;28;20137;-62
2021/11/11 02:34:06;;;;;;;42.00;18.25;;;1.50;99.90;;;;;;5071411;28;20102;-61
2021/11/11 02:36:31;;;;;;;42.80;19.63;;;1.30;99.90;;;;;;5054727;28;20054;-63
2021/11/11 02:38:57;;;;;;;41.72;20.23;;;1.30;99.90;;;;;;5071195;28;20460;-63
2021/11/11 02:41:24;;;;;;;42.38;19.63;;;1.10;99.90;;;;;;5053299;28;20462;-61
2021/11/11 02:43:50;;;;;;;40.33;18.73;;;1.10;99.90;;;;;;5070954;28;20052;-62
2021/11/11 02:46:16;;;;;;;42.97;20.02;;;1.20;99.90;;;;;;5105044;22;20047;-61
2021/11/11 02:48:42;;;;;;;42.22;20.83;;;1.30;99.90;;;;;;5090062;28;20027;-61
2021/11/11 02:51:08;;;;;;;45.28;20.80;;;1.30;99.90;;;;;;5086867;28;20433;-60
2021/11/11 02:53:33;;;;;;;44.05;20.23;;;1.40;99.90;;;;;;5070916;28;20147;-61
2021/11/11 02:55:59;;;;;;;49.95;20.75;;;1.50;99.90;;;;;;5068961;28;20108;-61
2021/11/11 02:58:26;;;;;;;51.90;19.98;;;1.50;99.90;;;;;;5070295;28;20048;-59
2021/11/11 03:01:00;;;;;;;42.47;21.63;;;1.60;99.90;;;;;;5072622;28;20343;-60
2021/11/11 03:03:27;;;;;;;;;;;1.70;99.90;;;;;;5066949;28;20033;-61
2021/11/11 03:05:53;;;;;;;55.00;22.63;;;1.80;99.90;;;;;;5071933;28;20042;-61
2021/11/11 03:08:19;;;;;;;49.30;23.00;;;1.90;99.90;;;;;;5071105;28;20036;-61
2021/11/11 03:10:45;;;;;;;65.10;24.67;;;1.80;99.90;;;;;;5071162;28;20386;-61
2021/11/11 03:13:12;;;;;;;57.85;23.85;;;1.80;99.90;;;;;;5069384;28;20113;-62
2021/11/11 03:15:39;;;;;;;55.10;24.63;;;1.80;99.90;;;;;;5076552;28;20023;-61
2021/11/11 03:18:04;;;;;;;60.78;23.45;;;1.70;99.90;;;;;;5069695;28;20109;-61
2021/11/11 03:20:30;;;;;;;48.80;23.80;;;1.80;99.90;;;;;;5074579;28;20075;-61
2021/11/11 03:22:56;;;;;;;59.13;23.48;;;1.90;99.90;;;;;;5076397;28;20036;-61
2021/11/11 03:25:24;;;;;;;53.25;24.85;;;1.80;99.90;;;;;;5072584;28;20032;-60
2021/11/11 03:27:51;;;;;;;57.75;25.33;;;1.90;99.90;;;;;;5073629;28;20041;-62
2021/11/11 03:30:19;;;;;;;49.78;22.80;;;1.80;99.90;;;;;;5070010;28;20016;-61
2021/11/11 03:32:45;;;;;;;52.45;23.42;;;1.90;99.90;;;;;;5067879;28;20024;-60
2021/11/11 03:35:12;;;;;;;46.25;21.77;;;2.00;99.90;;;;;;5073677;28;20031;-60
2021/11/11 03:37:39;;;;;;;47.08;23.50;;;2.00;99.90;;;;;;5070980;28;20029;-61
2021/11/11 03:40:12;;;;;;;52.95;22.10;;;1.90;99.90;;;;;;5070640;28;20033;-61
2021/11/11 03:42:38;;;;;;;71.45;25.67;;;2.00;99.90;;;;;;5069636;28;20036;-62
2021/11/11 03:45:07;;;;;;;50.95;23.58;;;2.10;99.90;;;;;;5068670;28;20041;-62
2021/11/11 03:47:33;;;;;;;49.63;20.77;;;2.00;99.90;;;;;;5070815;28;20027;-62
2021/11/11 03:49:58;;;;;;;52.78;22.83;;;2.00;99.90;;;;;;5072810;28;20025;-62
2021/11/11 03:52:24;;;;;;;41.60;20.95;;;2.10;99.90;;;;;;5071334;28;20039;-61
2021/11/11 03:54:50;;;;;;;50.58;20.83;;;2.20;99.90;;;;;;5072045;28;20361;-61
2021/11/11 03:57:15;;;;;;;78.47;23.63;;;2.20;99.90;;;;;;5069916;28;20118;-59
2021/11/11 03:59:41;;;;;;;88.15;22.58;;;2.10;99.90;;;;;;5071205;28;20040;-61
2021/11/11 04:02:07;;;;;;;60.55;22.80;;;1.90;99.90;;;;;;5072469;28;20024;-60
2021/11/11 04:04:34;;;;;;;67.60;23.17;;;1.90;99.90;;;;;;5069005;28;20043;-60
2021/11/11 04:06:59;;;;;;;49.67;22.08;;;1.80;99.90;;;;;;5073313;28;20149;-62
2021/11/11 04:09:25;;;;;;;47.63;22.17;;;1.80;99.90;;;;;;5069910;28;20072;-61
2021/11/11 04:11:51;;;;;;;67.68;25.02;;;1.90;99.90;;;;;;5071056;28;20048;-60
2021/11/11 04:14:18;;;;;;;80.15;24.33;;;1.90;99.90;;;;;;5072475;28;20039;-61
2021/11/11 04:16:45;;;;;;;64.85;25.42;;;1.80;99.90;;;;;;5073814;28;20517;-60
2021/11/11 04:19:11;;;;;;;54.78;24.50;;;1.80;99.90;;;;;;5074995;28;20024;-61
2021/11/11 04:21:37;;;;;;;80.72;26.48;;;1.90;99.90;;;;;;5072214;28;20024;-60
2021/11/11 04:24:03;;;;;;;69.82;24.10;;;1.90;99.90;;;;;;5073862;28;20035;-61
2021/11/11 04:26:31;;;;;;;53.65;23.13;;;1.90;99.90;;;;;;5077044;28;20028;-60
2021/11/11 04:29:03;;;;;;;72.70;25.77;;;1.90;99.90;;;;;;5074512;28;20028;-60
2021/11/11 04:31:33;;;;;;;66.57;24.95;;;1.90;99.90;;;;;;5079764;28;20017;-61
2021/11/11 04:34:02;;;;;;;120.13;26.88;;;1.70;99.90;;;;;;5054414;28;20028;-61
2021/11/11 04:44:34;;;;;;;;;;;1.70;99.90;;;;;;5073052;28;20112;-61
2021/11/11 04:47:19;;;;;;;57.80;24.30;;;1.70;99.90;;;;;;5072640;28;19934;-62
2021/11/11 05:05:32;;;;;;;56.83;23.73;;;1.50;99.90;;;;;;5074062;28;20048;-59
2021/11/11 05:07:58;;;;;;;62.25;24.48;;;1.60;99.90;;;;;;5070926;28;20032;-61
2021/11/11 05:10:25;;;;;;;50.20;24.13;;;1.60;99.90;;;;;;5072453;28;20082;-60
2021/11/11 05:12:51;;;;;;;54.03;24.17;;;1.60;99.90;;;;;;5076713;28;20028;-61
2021/11/11 05:15:17;;;;;;;56.15;23.20;;;1.70;99.90;;;;;;5075930;28;20107;-61
2021/11/11 05:17:45;;;;;;;50.33;23.48;;;1.70;99.90;;;;;;5078827;28;20031;-60
2021/11/11 05:20:15;;;;;;;50.17;23.83;;;1.60;99.90;;;;;;5078258;28;20020;-61
2021/11/11 05:22:42;;;;;;;78.13;24.27;;;1.60;99.90;;;;;;5075027;28;20028;-60
2021/11/11 05:25:09;;;;;;;117.03;27.13;;;1.70;99.90;;;;;;5074993;28;20149;-61
2021/11/11 05:27:36;;;;;;;48.78;21.85;;;1.60;99.90;;;;;;5073176;28;20035;-61
2021/11/11 05:30:07;;;;;;;54.47;22.15;;;1.60;99.90;;;;;;5077424;28;20028;-61
2021/11/11 05:32:33;;;;;;;70.32;23.33;;;1.80;99.90;;;;;;5072066;28;20012;-61
2021/11/11 05:35:03;;;;;;;70.25;23.52;;;1.80;99.90;;;;;;5076075;28;20036;-61
2021/11/11 05:37:28;;;;;;;62.42;23.02;;;1.80;99.90;;;;;;5070799;28;20033;-61
2021/11/11 05:39:54;;;;;;;43.28;21.58;;;1.80;99.90;;;;;;5071896;28;20474;-62
2021/11/11 05:42:20;;;;;;;68.18;23.65;;;1.80;99.90;;;;;;5071781;28;20028;-60
2021/11/11 05:44:46;;;;;;;59.15;21.70;;;1.90;99.90;;;;;;5071040;28;20494;-61
2021/11/11 05:47:12;;;;;;;43.90;21.98;;;1.80;99.90;;;;;;5071412;28;20036;-61
2021/11/11 05:49:37;;;;;;;43.42;20.95;;;1.90;99.90;;;;;;5075209;28;20035;-61
2021/11/11 05:52:03;;;;;;;48.85;22.52;;;1.90;99.90;;;;;;5070633;28;20118;-62
2021/11/11 05:54:29;;;;;;;65.63;22.85;;;1.90;99.90;;;;;;5070672;28;20095;-59
2021/11/11 05:56:54;;;;;;;73.90;22.77;;;1.80;99.90;;;;;;5071235;28;20116;-60
2021/11/11 05:59:20;;;;;;;40.83;19.35;;;1.60;99.90;;;;;;5071195;28;20031;-60
2021/11/11 06:01:46;;;;;;;45.22;20.85;;;1.60;99.90;;;;;;5071646;28;20497;-60
2021/11/11 06:04:11;;;;;;;74.75;22.63;;;1.70;99.90;;;;;;5070770;28;20036;-61
2021/11/11 06:06:37;;;;;;;67.63;23.75;;;1.60;99.90;;;;;;5070656;28;20196;-61
2021/11/11 06:09:03;;;;;;;90.55;23.77;;;1.50;99.90;;;;;;5074794;28;20036;-61
2021/11/11 06:11:28;;;;;;;62.90;23.70;;;1.50;99.90;;;;;;5068933;28;20021;-59
2021/11/11 06:13:54;;;;;;;55.97;23.02;;;1.50;99.90;;;;;;5070857;28;20035;-61
2021/11/11 06:16:21;;;;;;;101.63;24.30;;;1.60;99.90;;;;;;5073508;28;20107;-62
2021/11/11 06:18:47;;;;;;;48.67;22.45;;;1.60;99.90;;;;;;5073370;28;20043;-61
2021/11/11 06:21:13;;;;;;;72.20;25.67;;;1.60;99.90;;;;;;5072256;28;20032;-60
2021/11/11 06:23:39;;;;;;;47.35;21.80;;;1.60;99.90;;;;;;5071381;28;20123;-61
2021/11/11 06:26:05;;;;;;;67.28;24.05;;;1.60;99.90;;;;;;5069304;28;21005;-61
2021/11/11 06:28:31;;;;;;;74.43;23.73;;;1.60;99.90;;;;;;5075002;28;20034;-61
2021/11/11 06:30:56;;;;;;;68.78;23.40;;;1.50;99.90;;;;;;5073418;28;20099;-61
2021/11/11 06:33:22;;;;;;;68.70;24.85;;;1.40;99.90;;;;;;5068649;28;20032;-61
2021/11/11 06:35:48;;;;;;;59.38;24.10;;;1.40;99.90;;;;;;5081697;28;20470;-61
2021/11/11 06:38:14;;;;;;;47.20;21.63;;;1.50;99.90;;;;;;5075429;28;20442;-61
2021/11/11 06:40:40;;;;;;;51.47;23.50;;;1.50;99.90;;;;;;5068036;28;20033;-62
2021/11/11 06:43:06;;;;;;;51.70;22.85;;;1.60;99.90;;;;;;5066593;28;20035;-62
2021/11/11 06:45:42;;;;;;;59.70;24.45;;;1.60;99.90;;;;;;5063621;28;20039;-61
2021/11/11 06:48:08;;;;;;;69.95;24.17;;;1.70;99.90;;;;;;5068891;28;20032;-61
2021/11/11 06:50:34;;;;;;;62.58;22.98;;;1.70;99.90;;;;;;5066270;28;20032;-61
2021/11/11 06:52:59;;;;;;;70.88;25.60;;;1.70;99.90;;;;;;5068898;28;20032;-63
2021/11/11 06:55:25;;;;;;;54.30;24.05;;;1.70;99.90;;;;;;5072852;28;20473;-60
2021/11/11 06:57:51;;;;;;;64.43;25.08;;;1.70;99.90;;;;;;5065309;28;20028;-60
2021/11/11 07:00:17;;;;;;;56.05;23.90;;;1.70;99.90;;;;;;5067736;28;20505;-62
2021/11/11 07:02:43;;;;;;;64.53;25.65;;;1.80;99.90;;;;;;5067616;28;20032;-62
2021/11/11 07:05:09;;;;;;;83.78;24.23;;;1.80;99.90;;;;;;5067206;28;20119;-63
2021/11/11 07:07:35;;;;;;;65.65;25.52;;;1.80;99.90;;;;;;5068370;28;20021;-61
2021/11/11 07:10:01;;;;;;;70.70;26.85;;;1.90;99.90;;;;;;5066543;28;20367;-61
2021/11/11 07:12:26;;;;;;;51.03;23.00;;;1.90;99.90;;;;;;5068290;28;20038;-61
2021/11/11 07:14:52;;;;;;;71.07;24.02;;;1.90;99.90;;;;;;5067857;28;20078;-62
2021/11/11 07:17:18;;;;;;;55.15;24.80;;;2.00;99.90;;;;;;5068044;28;20033;-59
2021/11/11 07:19:43;;;;;;;68.32;26.00;;;2.00;99.90;;;;;;5067576;28;20027;-62
2021/11/11 07:22:09;;;;;;;58.42;23.83;;;2.00;99.90;;;;;;5068716;28;20028;-62
2021/11/11 07:24:34;;;;;;;70.50;25.02;;;2.10;99.90;;;;;;5068484;28;20024;-62
2021/11/11 07:27:00;;;;;;;81.60;29.50;;;2.20;99.90;;;;;;5068637;28;20038;-62
2021/11/11 07:29:26;;;;;;;99.53;29.08;;;2.20;99.90;;;;;;5065879;28;20112;-61
2021/11/11 07:31:52;;;;;;;55.17;22.48;;;2.30;99.90;;;;;;5067588;28;20025;-61
2021/11/11 07:34:22;;;;;;;66.43;27.58;;;2.30;99.90;;;;;;5064516;28;20527;-61
2021/11/11 07:36:48;;;;;;;73.57;24.63;;;2.30;99.90;;;;;;5064043;28;20020;-61
2021/11/11 07:39:15;;;;;;;105.78;26.83;;;2.40;99.90;;;;;;5066905;28;20021;-62
2021/11/11 07:41:43;;;;;;;70.70;26.30;;;2.40;99.90;;;;;;5066232;28;20025;-62
2021/11/11 07:44:10;;;;;;;64.05;25.60;;;2.40;99.90;;;;;;5066209;28;20399;-61
2021/11/11 07:46:37;;;;;;;68.30;23.33;;;2.50;99.90;;;;;;5061964;28;20043;-61
2021/11/11 07:49:04;;;;;;;50.28;22.00;;;2.40;99.90;;;;;;5066645;28;20029;-61
2021/11/11 07:51:29;;;;;;;64.00;24.02;;;2.50;99.90;;;;;;5069496;28;20017;-60
2021/11/11 07:53:55;;;;;;;89.70;27.80;;;2.60;99.90;;;;;;5068793;28;20032;-61
2021/11/11 07:56:21;;;;;;;55.05;24.75;;;2.60;99.90;;;;;;5070539;28;20100;-62
2021/11/11 07:58:46;;;;;;;98.22;26.08;;;2.60;99.90;;;;;;5071592;28;20024;-61
2021/11/11 08:01:12;;;;;;;104.40;28.85;;;2.70;99.90;;;;;;5070803;28;20036;-61
2021/11/11 08:03:37;;;;;;;139.93;31.77;;;2.70;99.90;;;;;;5071850;28;20395;-60
2021/11/11 08:06:03;;;;;;;68.75;26.13;;;2.70;99.90;;;;;;5070746;28;20963;-62
2021/11/11 08:08:29;;;;;;;70.78;27.48;;;2.80;99.90;;;;;;5070060;28;20115;-61
2021/11/11 08:10:55;;;;;;;88.78;29.05;;;2.90;99.90;;;;;;5070825;28;20028;-60
2021/11/11 08:13:21;;;;;;;61.45;28.52;;;2.80;99.90;;;;;;5068221;28;20125;-63
2021/11/11 08:15:47;;;;;;;70.97;30.33;;;2.80;99.90;;;;;;5071823;28;20158;-61
2021/11/11 08:18:12;;;;;;;116.72;30.98;;;2.90;99.90;;;;;;5071250;28;20037;-61
2021/11/11 08:20:38;;;;;;;102.85;31.83;;;2.90;99.90;;;;;;5071382;28;20035;-61
2021/11/11 08:23:04;;;;;;;107.88;31.48;;;2.90;99.90;;;;;;5069437;28;20033;-61
2021/11/11 08:25:31;;;;;;;105.03;33.30;;;3.00;99.90;;;;;;5072061;28;20024;-60
2021/11/11 08:27:56;;;;;;;110.13;31.40;;;3.00;99.90;;;;;;5065219;28;20033;-60
2021/11/11 08:30:23;;;;;;;62.63;27.10;;;2.90;99.90;;;;;;5071766;28;20033;-60
2021/11/11 08:32:51;;;;;;;70.32;26.95;;;2.90;99.90;;;;;;5071583;28;20020;-60
2021/11/11 08:35:17;;;;;;;87.53;29.88;;;2.90;99.90;;;;;;5071468;28;20025;-61
2021/11/11 08:37:44;;;;;;;99.68;31.67;;;2.90;99.90;;;;;;5068780;28;20027;-61
2021/11/11 08:40:10;;;;;;;81.47;28.45;;;2.90;99.90;;;;;;5072290;28;20461;-61
2021/11/11 08:42:36;;;;;;;73.35;27.67;;;2.90;99.90;;;;;;5070353;28;20028;-61
2021/11/11 08:45:03;;;;;;;78.40;29.65;;;3.00;99.90;;;;;;5095605;22;20033;-64
2021/11/11 08:47:29;;;;;;;99.75;30.02;;;3.10;99.90;;;;;;5072705;28;20044;-65
2021/11/11 08:49:56;;;;;;;100.30;29.67;;;3.10;99.90;;;;;;5070956;28;20031;-63
2021/11/11 08:52:22;;;;;;;65.85;29.20;;;3.10;99.90;;;;;;5071723;28;20355;-64
2021/11/11 08:54:49;;;;;;;71.93;31.15;;;3.20;99.90;;;;;;5071684;28;20023;-64
2021/11/11 08:57:14;;;;;;;112.30;32.00;;;3.20;99.90;;;;;;5070586;28;20028;-64
2021/11/11 08:59:40;;;;;;;73.03;32.50;;;3.30;99.90;;;;;;5067994;28;20106;-64
2021/11/11 09:02:08;;;;;;;98.85;32.45;;;3.30;99.90;;;;;;5071624;28;20109;-64
2021/11/11 09:04:33;;;;;;;83.07;32.25;;;3.50;99.90;;;;;;5069073;28;20479;-62
2021/11/11 09:07:00;;;;;;;79.00;34.47;;;3.50;99.90;;;;;;5071634;28;20032;-64
2021/11/11 09:09:26;;;;;;;74.38;31.55;;;3.60;99.90;;;;;;5070832;28;20043;-61
2021/11/11 09:11:51;;;;;;;83.68;32.63;;;3.60;99.90;;;;;;5070546;28;20784;-61
2021/11/11 09:14:17;;;;;;;75.78;31.48;;;3.80;99.90;;;;;;5070370;28;20036;-63
2021/11/11 09:16:43;;;;;;;87.35;32.90;;;3.80;99.90;;;;;;5071338;28;20028;-62
2021/11/11 09:19:09;;;;;;;100.45;34.67;;;3.80;99.90;;;;;;5072008;28;20529;-64
2021/11/11 09:21:36;;;;;;;89.18;36.20;;;3.80;99.90;;;;;;5070181;28;20147;-63
2021/11/11 09:24:02;;;;;;;99.30;37.92;;;3.60;99.90;;;;;;5071288;28;20077;-63
2021/11/11 09:26:27;;;;;;;107.93;38.55;;;3.60;99.90;;;;;;5070208;28;20507;-64
2021/11/11 09:28:53;;;;;;;99.40;35.92;;;3.70;99.90;;;;;;5070514;28;20042;-64
2021/11/11 09:31:21;;;;;;;101.03;38.88;;;3.70;99.90;;;;;;5069971;28;20490;-64
2021/11/11 09:33:47;;;;;;;88.93;36.97;;;3.60;99.90;;;;;;5070877;28;20031;-62
2021/11/11 09:36:15;;;;;;;108.97;39.50;;;3.70;99.90;;;;;;5070384;28;20021;-63
2021/11/11 09:38:42;;;;;;;98.55;40.38;;;3.70;99.90;;;;;;5071108;28;20033;-63
2021/11/11 09:41:10;;;;;;;97.80;37.58;;;3.80;99.90;;;;;;5070576;28;20020;-64
2021/11/11 09:43:37;;;;;;;89.32;37.13;;;3.90;99.90;;;;;;5070882;28;20036;-61
2021/11/11 09:46:04;;;;;;;99.78;37.22;;;3.80;99.90;;;;;;5053426;28;20045;-64
2021/11/11 09:48:32;;;;;;;93.72;38.50;;;3.80;99.90;;;;;;5070646;28;20064;-63
2021/11/11 09:50:58;;;;;;;92.32;37.78;;;3.80;99.90;;;;;;5069869;28;20031;-63
2021/11/11 09:53:24;;;;;;;100.28;38.58;;;3.80;99.90;;;;;;5071083;28;20048;-63
2021/11/11 09:58:35;;;;;;;;;;;4.00;99.90;;;;;;5071040;28;20036;-64
2021/11/11 10:01:09;;;;;;;87.00;34.83;;;4.10;99.90;;;;;;5070715;28;19904;-63
2021/11/11 10:03:41;;;;;;;96.07;38.38;;;4.10;99.90;;;;;;5070128;28;20025;-64
2021/11/11 10:06:11;;;;;;;94.43;38.13;;;4.10;99.90;;;;;;5070403;28;20039;-63
2021/11/11 10:08:40;;;;;;;101.18;40.90;;;4.10;99.90;;;;;;5069070;28;20037;-61
2021/11/11 10:11:26;;;;;;;101.70;41.50;;;4.20;99.90;;;;;;5071277;28;20029;-63
2021/11/11 10:13:57;;;;;;;109.65;44.35;;;4.30;99.90;;;;;;5070673;28;20470;-61
2021/11/11 10:16:23;;;;;;;121.43;43.40;;;4.30;99.90;;;;;;5070119;28;20056;-63
2021/11/11 10:18:52;;;;;;;111.07;42.20;;;4.40;99.90;;;;;;5070701;28;20457;-64
2021/11/11 10:21:43;;;;;;;114.05;43.85;;;4.50;99.90;;;;;;5070230;28;20036;-62
2021/11/11 10:24:20;;;;;;;112.93;44.28;;;4.50;99.90;;;;;;5069802;28;20025;-63
2021/11/11 10:27:05;;;;;;;119.10;43.70;;;4.50;99.90;;;;;;5069809;28;20051;-62
2021/11/11 10:29:39;;;;;;;107.65;42.47;;;4.50;99.90;;;;;;5064655;28;20012;-63
2021/11/11 10:32:10;;;;;;;109.45;44.20;;;4.50;99.90;;;;;;5071200;28;20028;-63
2021/11/11 10:35:02;;;;;;;113.30;43.45;;;4.60;99.90;;;;;;5069003;28;20048;-63
2021/11/11 10:37:35;;;;;;;103.95;41.78;;;4.80;99.90;;;;;;5062931;28;20047;-63
2021/11/11 10:40:13;;;;;;;114.47;44.17;;;4.80;99.90;;;;;;5067334;28;20029;-64
2021/11/11 10:42:42;;;;;;;113.78;45.10;;;4.70;99.90;;;;;;5064270;28;20035;-65
2021/11/11 10:45:20;;;;;;;125.32;49.90;;;4.70;99.90;;;;;;5069592;28;20115;-63
2021/11/11 10:47:50;;;;;;;138.10;48.92;;;4.80;99.90;;;;;;5063391;28;20546;-62
2021/11/11 10:50:28;;;;;;;160.80;49.83;;;4.70;99.90;;;;;;5069155;28;20502;-62
2021/11/11 10:52:57;;;;;;;119.43;45.75;;;4.70;99.90;;;;;;5069878;28;20023;-63
2021/11/11 10:55:22;;;;;;;142.38;51.80;;;4.60;99.90;;;;;;5069952;28;20027;-62
2021/11/11 10:58:01;;;;;;;133.82;52.20;;;4.70;99.90;;;;;;5070034;28;20025;-63
2021/11/11 11:00:33;;;;;;;133.35;52.08;;;4.80;99.90;;;;;;5068075;28;20044;-63
2021/11/11 11:03:01;;;;;;;133.73;51.08;;;4.90;99.90;;;;;;5068941;28;20066;-63
2021/11/11 11:05:37;;;;;;;134.07;50.50;;;5.00;99.90;;;;;;5069513;28;20044;-63
2021/11/11 11:08:07;;;;;;;135.70;52.97;;;5.10;99.90;;;;;;5065851;28;20026;-64
2021/11/11 11:10:35;;;;;;;150.32;53.88;;;5.00;99.90;;;;;;5069177;28;20029;-64
2021/11/11 11:13:24;;;;;;;136.48;51.72;;;5.10;99.90;;;;;;5069443;28;20157;-64
2021/11/11 11:16:02;;;;;;;138.18;54.08;;;5.20;99.90;;;;;;5066453;28;20047;-64
2021/11/11 11:18:36;;;;;;;157.45;52.22;;;5.30;99.90;;;;;;5069634;28;20096;-63
2021/11/11 11:21:04;;;;;;;;;;;5.40;99.90;;;;;;5069195;28;20106;-64
2021/11/11 11:23:33;;;;;;;156.00;56.47;;;5.50;99.90;;;;;;5069405;28;19905;-63
2021/11/11 11:26:05;;;;;;;163.02;59.83;;;5.50;99.90;;;;;;5068893;28;20025;-63
2021/11/11 11:28:41;;;;;;;171.85;61.63;;;5.40;99.90;;;;;;5069622;28;20025;-62
2021/11/11 11:31:08;;;;;;;170.13;64.95;;;5.50;99.90;;;;;;5069694;28;20024;-63
2021/11/11 11:33:43;;;;;;;168.43;61.33;;;5.40;99.90;;;;;;5069077;28;20017;-63
2021/11/11 11:36:11;;;;;;;164.07;60.67;;;5.50;99.90;;;;;;5068816;28;20037;-63
2021/11/11 11:38:40;;;;;;;158.52;60.13;;;5.50;99.90;;;;;;5069695;28;20025;-63
2021/11/11 11:41:29;;;;;;;151.30;56.15;;;5.60;99.90;;;;;;5068980;28;20032;-62
2021/11/11 11:44:13;;;;;;;165.80;59.97;;;5.70;99.90;;;;;;5067349;28;20029;-62
2021/11/11 11:46:39;;;;;;;165.18;61.70;;;5.80;99.90;;;;;;5069541;28;20281;-61
2021/11/11 11:49:05;;;;;;;152.15;63.42;;;5.80;99.90;;;;;;5069263;28;20504;-63
2021/11/11 11:51:31;;;;;;;179.00;62.22;;;5.80;99.90;;;;;;5050052;28;20021;-63
2021/11/11 11:54:12;;;;;;;160.60;63.25;;;6.00;99.90;;;;;;5069375;28;20397;-64
2021/11/11 11:56:48;;;;;;;167.85;62.55;;;6.00;99.90;;;;;;5069019;28;20017;-62
2021/11/11 11:59:17;;;;;;;153.30;56.90;;;6.20;99.90;;;;;;5069212;28;20028;-63
2021/11/11 12:15:29;;;;;;;124.25;49.88;;;6.90;99.90;;;;;;5068546;28;20521;-63
2021/11/11 12:28:25;;;;;;;124.78;51.17;;;7.00;99.90;;;;;;5050384;28;20459;-63
2021/11/11 12:40:34;;;;;;;113.43;48.55;;;7.40;99.90;;;;;;5064842;28;20044;-64
2021/11/11 12:43:16;;;;;;;115.75;49.22;;;7.40;99.90;;;;;;5069133;28;20039;-64
2021/11/11 12:45:42;;;;;;;104.18;48.25;;;7.40;99.90;;;;;;5068176;28;20055;-63
2021/11/11 12:48:11;;;;;;;105.22;47.88;;;7.50;99.90;;;;;;5057835;28;20789;-63
2021/11/11 12:51:03;;;;;;;104.32;50.00;;;7.50;99.90;;;;;;5055381;28;20029;-65
2021/11/11 12:53:32;;;;;;;109.38;46.50;;;7.50;99.90;;;;;;5038954;28;20043;-62
2021/11/11 12:56:01;;;;;;;111.30;50.40;;;7.60;99.90;;;;;;5057760;28;20025;-63
2021/11/11 12:58:29;;;;;;;114.32;51.88;;;7.70;99.90;;;;;;5056825;28;20025;-63
2021/11/11 13:00:59;;;;;;;115.28;53.35;;;7.70;99.90;;;;;;5056379;28;20029;-63
2021/11/11 13:03:52;;;;;;;106.72;51.20;;;7.70;99.90;;;;;;5056711;28;20029;-64
2021/11/11 13:06:41;;;;;;;105.60;47.40;;;7.80;99.90;;;;;;5058586;28;20107;-64
2021/11/11 13:09:20;;;;;;;104.40;48.60;;;7.80;99.90;;;;;;5059251;28;20173;-63
2021/11/11 13:11:57;;;;;;;101.47;50.20;;;7.90;99.90;;;;;;5040248;28;20766;-63
2021/11/11 13:14:27;;;;;;;108.28;49.10;;;8.00;99.90;;;;;;5058955;28;20020;-64
2021/11/11 13:16:59;;;;;;;103.60;48.78;;;8.10;99.90;;;;;;5058537;28;20020;-63
2021/11/11 13:19:36;;;;;;;97.28;47.95;;;8.10;99.90;;;;;;5068176;28;20020;-64
2021/11/11 13:25:20;;;;;;;106.10;48.28;;;8.40;99.90;;;;;;5068568;28;20047;-65
2021/11/11 14:05:11;;;;;;;96.35;43.92;;;9.30;99.90;;;;;;5071538;28;20494;-63
2021/11/11 16:01:07;;;;;;;98.05;43.30;;;6.30;99.90;;;;;;5040583;28;20150;-61
2021/11/11 16:20:27;;;;;;;95.43;44.95;;;5.60;99.90;;;;;;5048026;28;21260;-59
2021/11/11 16:23:19;;;;;;;116.75;47.33;;;5.60;99.90;;;;;;5046408;28;20037;-61
2021/11/11 16:28:23;;;;;;;102.80;46.33;;;5.50;99.90;;;;;;5029204;28;21123;-61
2021/11/11 16:30:48;;;;;;;95.90;41.72;;;5.40;99.90;;;;;;5045505;28;20029;-61
2021/11/11 16:33:15;;;;;;;95.18;41.60;;;5.40;99.90;;;;;;5042965;28;20044;-61